createdAt,value
2023-05-22T09:04:30.074Z,16576.00
2023-05-22T09:06:59.839Z,17728.00
2023-05-22T09:08:08.344Z,19424.00
2023-05-22T09:08:59.808Z,18848.00
2023-05-22T09:09:59.798Z,18272.00
2023-05-22T09:10:59.814Z,18880.00
2023-05-22T09:11:59.756Z,19040.00
2023-05-22T09:12:59.750Z,18272.00
2023-05-22T09:13:59.746Z,18304.00
2023-05-22T09:14:59.722Z,18112.00
2023-05-22T09:15:59.737Z,17408.00
2023-05-22T09:18:14.446Z,17184.00
2023-05-22T09:19:14.431Z,16068.00
2023-05-22T09:20:14.394Z,14696.00
2023-05-22T09:35:02.174Z,17312.00
2023-05-22T09:36:02.204Z,17152.00
2023-05-22T09:37:02.165Z,15284.00
2023-05-22T09:38:02.140Z,15108.00
2023-05-22T09:39:02.151Z,14992.00
2023-05-22T09:40:02.114Z,14904.00
2023-05-22T09:41:02.104Z,14652.00
2023-05-22T09:42:02.064Z,14788.00
2023-05-22T09:43:02.081Z,16184.00
2023-05-22T09:44:02.394Z,17344.00
2023-05-22T09:45:02.055Z,18464.00
2023-05-22T09:46:02.503Z,18720.00
2023-05-22T09:47:09.056Z,20192.00
2023-05-22T09:48:02.064Z,20704.00
2023-05-22T09:49:01.984Z,18176.00
2023-05-22T09:50:01.985Z,16072.00
2023-05-22T09:54:17.005Z,18336.00
2023-05-22T09:55:16.979Z,17280.00
2023-05-22T09:56:24.008Z,15652.00
2023-05-22T09:59:51.136Z,13668.00
2023-05-22T10:01:36.451Z,14484.00
2023-05-22T10:02:36.395Z,15500.00
2023-05-22T10:03:36.388Z,15448.00
2023-05-22T10:04:36.427Z,15232.00
2023-05-22T10:05:36.388Z,15284.00
2023-05-22T10:06:36.371Z,14780.00
2023-05-22T10:07:36.352Z,14968.00
2023-05-22T10:08:36.320Z,16092.00
2023-05-22T10:09:36.328Z,16800.00
2023-05-22T10:10:36.324Z,16608.00
2023-05-22T10:11:36.328Z,15988.00
2023-05-22T10:12:36.262Z,14852.00
2023-05-22T10:13:36.276Z,15096.00
2023-05-22T10:14:45.618Z,18208.00
2023-05-22T10:15:36.242Z,17152.00
2023-05-22T10:16:36.269Z,17280.00
2023-05-22T10:17:36.242Z,16736.00
2023-05-22T10:18:36.186Z,19584.00
2023-05-22T10:19:37.733Z,19776.00
2023-05-22T10:20:36.197Z,18304.00
2023-05-22T10:21:36.154Z,16768.00
2023-05-22T10:23:43.306Z,15276.00
2023-05-22T10:24:43.356Z,17056.00
2023-05-22T10:25:43.290Z,17184.00
2023-05-22T10:26:43.255Z,14776.00
2023-05-22T10:27:43.274Z,13916.00
2023-05-22T10:28:43.267Z,14476.00
2023-05-22T10:29:43.234Z,15300.00
2023-05-22T10:30:43.399Z,16896.00
2023-05-22T10:31:43.205Z,18976.00
2023-05-22T10:32:43.259Z,18080.00
2023-05-22T10:33:43.222Z,16408.00
2023-05-22T10:34:43.186Z,16460.00
2023-05-22T10:35:43.172Z,15372.00
2023-05-22T10:36:43.755Z,16024.00
2023-05-22T10:37:43.158Z,16224.00
2023-05-22T10:38:43.133Z,18400.00
2023-05-22T10:39:43.130Z,17536.00
2023-05-22T10:40:43.218Z,14644.00
2023-05-22T10:42:08.125Z,14472.00
2023-05-22T10:43:08.140Z,14716.00
2023-05-22T10:44:08.114Z,14492.00
2023-05-22T10:45:08.139Z,14832.00
2023-05-22T10:46:08.117Z,15580.00
2023-05-22T10:47:08.093Z,17952.00
2023-05-22T10:48:08.249Z,20000.00
2023-05-22T10:49:08.038Z,20544.00
2023-05-22T10:50:08.084Z,18720.00
2023-05-22T10:51:08.024Z,17056.00
2023-05-22T10:52:08.005Z,16000.00
2023-05-22T10:53:07.993Z,17152.00
2023-05-22T10:54:15.843Z,18272.00
2023-05-22T10:55:07.981Z,19648.00
2023-05-22T10:56:08.039Z,19328.00
2023-05-22T10:57:07.976Z,19296.00
2023-05-22T10:58:07.975Z,17536.00
2023-05-22T10:59:08.167Z,16188.00
2023-05-22T11:00:07.928Z,18240.00
2023-05-22T11:01:07.900Z,20224.00
2023-05-22T11:02:09.689Z,18752.00
2023-05-22T11:03:17.301Z,16992.00
2023-05-22T11:04:07.859Z,17408.00
2023-05-22T11:05:07.916Z,19104.00
2023-05-22T11:06:07.863Z,21152.00
2023-05-22T11:07:07.870Z,20608.00
2023-05-22T11:08:07.831Z,20448.00
2023-05-22T11:09:07.811Z,19424.00
2023-05-22T11:10:07.800Z,19648.00
2023-05-22T11:11:07.804Z,16832.00
2023-05-22T11:12:07.861Z,16368.00
2023-05-22T11:13:07.780Z,16520.00
2023-05-22T11:14:07.761Z,19232.00
2023-05-22T11:15:07.785Z,19296.00
2023-05-22T11:16:07.720Z,22080.00
2023-05-22T11:17:07.834Z,23968.00
2023-05-22T11:18:07.752Z,21984.00
2023-05-22T11:19:21.672Z,21696.00
2023-05-22T11:20:07.795Z,20768.00
2023-05-22T11:21:07.688Z,19232.00
2023-05-22T11:22:07.660Z,19392.00
2023-05-22T11:23:07.673Z,19392.00
2023-05-22T11:24:07.634Z,17728.00
2023-05-22T11:25:07.648Z,19072.00
2023-05-22T11:26:07.601Z,19616.00
2023-05-22T11:27:07.615Z,20768.00
2023-05-22T11:28:07.658Z,22304.00
2023-05-22T11:29:07.614Z,20544.00
2023-05-22T11:30:07.566Z,18112.00
2023-05-22T11:31:07.619Z,16456.00
2023-05-22T11:32:07.553Z,17696.00
2023-05-22T11:33:07.585Z,16492.00
2023-05-22T11:34:07.617Z,17504.00
2023-05-22T11:35:07.669Z,18048.00
2023-05-22T11:36:07.540Z,18368.00
2023-05-22T11:37:07.514Z,18336.00
2023-05-22T11:38:07.519Z,16980.00
2023-05-22T11:39:07.460Z,17280.00
2023-05-22T11:40:07.474Z,17472.00
2023-05-22T11:41:07.431Z,18176.00
2023-05-22T11:42:07.463Z,19008.00
2023-05-22T11:43:07.424Z,18592.00
2023-05-22T11:44:07.472Z,16936.00
2023-05-22T11:45:07.437Z,17408.00
2023-05-22T11:46:07.407Z,18464.00
2023-05-22T11:47:07.371Z,19104.00
2023-05-22T11:48:07.419Z,18400.00
2023-05-22T11:49:07.341Z,19104.00
2023-05-22T11:50:07.359Z,18752.00
2023-05-22T11:51:07.338Z,18656.00
2023-05-22T11:52:07.315Z,18432.00
2023-05-22T11:53:07.299Z,18336.00
2023-05-22T11:54:07.308Z,18528.00
2023-05-22T11:55:07.281Z,18432.00
2023-05-22T11:56:07.273Z,18656.00
2023-05-22T11:57:07.244Z,19360.00
2023-05-22T11:58:07.248Z,18720.00
2023-05-22T11:59:07.227Z,17600.00
2023-05-22T12:00:07.332Z,17952.00
2023-05-22T12:01:07.220Z,18912.00
2023-05-22T12:02:07.178Z,18560.00
2023-05-22T12:03:07.286Z,18496.00
2023-05-22T12:04:07.268Z,18816.00
2023-05-22T12:05:07.184Z,19360.00
2023-05-22T12:06:07.169Z,19488.00
2023-05-22T12:07:07.142Z,20000.00
2023-05-22T12:08:07.130Z,19264.00
2023-05-22T12:09:07.125Z,19808.00
2023-05-22T12:10:07.159Z,21056.00
2023-05-22T12:11:07.091Z,21408.00
2023-05-22T12:12:07.059Z,19776.00
2023-05-22T12:13:07.075Z,18432.00
2023-05-22T12:14:07.054Z,20736.00
2023-05-22T12:15:07.102Z,20608.00
2023-05-22T12:16:07.147Z,19328.00
2023-05-22T12:17:07.024Z,19936.00
2023-05-22T12:18:07.027Z,19552.00
2023-05-22T12:19:07.036Z,20352.00
2023-05-22T12:20:06.987Z,20448.00
2023-05-22T12:21:06.995Z,21280.00
2023-05-22T12:22:06.962Z,20384.00
2023-05-22T12:23:06.942Z,20384.00
2023-05-22T12:24:07.010Z,20480.00
2023-05-22T12:25:06.934Z,20960.00
2023-05-22T12:26:06.923Z,20512.00
2023-05-22T12:27:06.921Z,19392.00
2023-05-22T12:28:06.935Z,19904.00
2023-05-22T12:29:06.896Z,20736.00
2023-05-22T12:30:06.923Z,20864.00
2023-05-22T12:31:06.896Z,22208.00
2023-05-22T12:32:06.980Z,21056.00
2023-05-22T12:33:06.881Z,18944.00
2023-05-22T12:34:06.836Z,19264.00
2023-05-22T12:35:07.281Z,19968.00
2023-05-22T12:36:06.830Z,21280.00
2023-05-22T12:37:06.781Z,22848.00
2023-05-22T12:38:06.763Z,21760.00
2023-05-22T12:39:06.753Z,20704.00
2023-05-22T12:40:06.734Z,20832.00
2023-05-22T12:41:06.758Z,20128.00
2023-05-22T12:42:06.732Z,20320.00
2023-05-22T12:43:06.712Z,20704.00
2023-05-22T12:44:06.720Z,20832.00
2023-05-22T12:45:06.704Z,21376.00
2023-05-22T12:46:06.742Z,20640.00
2023-05-22T12:47:06.670Z,21760.00
2023-05-22T12:48:06.881Z,21664.00
2023-05-22T12:49:06.672Z,22016.00
2023-05-22T12:50:06.659Z,21664.00
2023-05-22T12:51:06.635Z,21760.00
2023-05-22T12:52:06.629Z,21248.00
2023-05-22T12:53:06.600Z,20832.00
2023-05-22T12:54:06.609Z,20928.00
2023-05-22T12:55:06.613Z,21152.00
2023-05-22T12:56:06.589Z,21344.00
2023-05-22T12:57:06.587Z,21248.00
2023-05-22T12:58:06.569Z,21056.00
2023-05-22T12:59:06.565Z,21408.00
2023-05-22T13:00:06.523Z,21760.00
2023-05-22T13:01:06.578Z,21888.00
2023-05-22T13:02:06.584Z,21664.00
2023-05-22T13:03:06.596Z,21728.00
2023-05-22T13:04:06.574Z,22048.00
2023-05-22T13:05:06.554Z,22176.00
2023-05-22T13:06:06.519Z,22464.00
2023-05-22T13:07:06.460Z,22816.00
2023-05-22T13:08:06.458Z,23168.00
2023-05-22T13:09:06.498Z,23584.00
2023-05-22T13:10:06.434Z,23936.00
2023-05-22T13:11:06.431Z,24672.00
2023-05-22T13:12:06.470Z,24960.00
2023-05-22T13:13:06.395Z,26144.00
2023-05-22T13:14:06.397Z,27488.00
2023-05-22T13:15:06.405Z,29600.00
2023-05-22T13:16:06.386Z,33056.00
2023-05-22T13:17:06.359Z,37728.00
2023-05-22T13:18:06.431Z,42720.00
2023-05-22T13:19:06.390Z,46400.00
2023-05-22T13:20:06.533Z,45376.00
2023-05-22T13:21:06.351Z,47968.00
2023-05-22T13:22:06.322Z,48512.00
2023-05-22T13:23:06.308Z,48640.00
2023-05-22T13:24:06.284Z,47936.00
2023-05-22T13:25:06.285Z,48032.00
2023-05-22T13:26:06.299Z,49920.00
2023-05-22T13:27:06.278Z,50816.00
2023-05-22T13:28:06.253Z,53152.00
2023-05-22T13:29:06.287Z,57568.00
2023-05-22T13:30:06.233Z,54848.00
2023-05-22T13:31:06.263Z,50784.00
2023-05-22T13:32:06.226Z,50368.00
2023-05-22T13:33:06.248Z,56256.00
2023-05-22T13:34:06.238Z,56480.00
2023-05-22T13:35:06.237Z,56320.00
2023-05-22T13:36:06.271Z,55200.00
2023-05-22T13:37:06.178Z,57600.00
2023-05-22T13:38:06.181Z,56320.00
2023-05-22T13:39:06.160Z,55776.00
2023-05-22T13:40:06.157Z,57696.00
2023-05-22T13:41:06.161Z,55680.00
2023-05-22T13:42:06.150Z,56352.00
2023-05-22T13:43:06.143Z,57088.00
2023-05-22T13:44:06.134Z,57888.00
2023-05-22T13:45:06.147Z,59360.00
2023-05-22T13:46:06.113Z,60288.00
2023-05-22T13:47:06.163Z,60128.00
2023-05-22T13:48:06.112Z,60576.00
2023-05-22T13:49:06.082Z,59072.00
2023-05-22T13:50:06.099Z,59840.00
2023-05-22T13:51:06.079Z,57920.00
2023-05-22T13:52:06.130Z,59008.00
2023-05-22T13:53:06.100Z,57728.00
2023-05-22T13:54:06.046Z,56864.00
2023-05-22T13:55:06.060Z,56800.00
2023-05-22T13:56:06.040Z,54048.00
2023-05-22T13:57:06.033Z,56224.00
2023-05-22T13:58:06.032Z,55936.00
2023-05-22T13:59:08.440Z,52256.00
2023-05-22T14:00:05.991Z,31232.00
2023-05-22T14:01:06.060Z,54400.00
2023-05-22T14:02:06.043Z,55872.00
2023-05-22T14:03:06.093Z,54464.00
2023-05-22T14:04:05.985Z,57504.00
2023-05-22T14:05:05.967Z,56928.00
2023-05-22T14:06:05.955Z,53280.00
2023-05-22T14:07:05.948Z,55232.00
2023-05-22T14:08:06.024Z,53664.00
2023-05-22T14:09:05.961Z,55488.00
2023-05-22T14:10:05.919Z,53856.00
2023-05-22T14:11:05.946Z,55232.00
2023-05-22T14:12:05.916Z,50880.00
2023-05-22T14:13:05.913Z,52384.00
2023-05-22T14:14:05.913Z,54112.00
2023-05-22T14:15:05.907Z,54592.00
2023-05-22T14:16:05.888Z,55808.00
2023-05-22T14:17:05.938Z,53248.00
2023-05-22T14:18:05.910Z,53312.00
2023-05-22T14:19:05.883Z,52128.00
2023-05-22T14:20:05.867Z,53184.00
2023-05-22T14:21:05.898Z,46528.00
2023-05-22T14:22:05.907Z,47552.00
2023-05-22T14:23:05.863Z,51072.00
2023-05-22T14:24:05.916Z,52128.00
2023-05-22T14:25:05.847Z,42816.00
2023-05-22T14:26:05.838Z,48256.00
2023-05-22T14:27:05.812Z,50208.00
2023-05-22T14:28:05.798Z,50656.00
2023-05-22T14:29:05.819Z,49632.00
2023-05-22T14:30:05.794Z,48800.00
2023-05-22T14:31:05.861Z,49248.00
2023-05-22T14:32:05.781Z,49312.00
2023-05-22T14:33:05.852Z,48384.00
2023-05-22T14:34:05.763Z,48544.00
2023-05-22T14:35:05.768Z,41152.00
2023-05-22T14:36:05.768Z,30592.00
2023-05-22T14:37:05.754Z,48672.00
2023-05-22T14:38:05.746Z,45856.00
2023-05-22T14:39:05.739Z,43648.00
2023-05-22T14:40:05.832Z,43616.00
2023-05-22T14:41:05.771Z,44416.00
2023-05-22T14:42:05.756Z,45088.00
2023-05-22T14:43:05.756Z,45952.00
2023-05-22T14:44:05.714Z,47968.00
2023-05-22T14:45:05.717Z,48640.00
2023-05-22T14:46:05.765Z,47456.00
2023-05-22T14:47:05.725Z,46432.00
2023-05-22T14:48:05.760Z,47072.00
2023-05-22T14:49:05.693Z,45952.00
2023-05-22T14:50:18.270Z,45184.00
2023-05-22T14:51:05.673Z,45472.00
2023-05-22T14:52:05.698Z,44608.00
2023-05-22T14:53:05.690Z,45856.00
2023-05-22T14:54:05.852Z,45408.00
2023-05-22T14:55:05.664Z,47264.00
2023-05-22T14:56:05.768Z,47776.00
2023-05-22T14:57:05.657Z,47104.00
2023-05-22T14:58:05.640Z,48192.00
2023-05-22T14:59:05.663Z,52064.00
2023-05-22T15:00:05.663Z,51712.00
2023-05-22T15:01:05.687Z,38976.00
2023-05-22T15:02:05.697Z,44672.00
2023-05-22T15:03:05.625Z,47872.00
2023-05-22T15:04:05.608Z,51712.00
2023-05-22T15:05:05.722Z,52288.00
2023-05-22T15:06:05.597Z,53024.00
2023-05-22T15:07:05.646Z,50848.00
2023-05-22T15:08:05.610Z,28672.00
2023-05-22T15:09:05.570Z,48448.00
2023-05-22T15:10:05.721Z,50880.00
2023-05-22T15:11:05.588Z,51392.00
2023-05-22T15:12:05.694Z,50176.00
2023-05-22T15:13:05.554Z,49952.00
2023-05-22T15:14:05.581Z,49184.00
2023-05-22T15:15:05.599Z,50528.00
2023-05-22T15:16:05.564Z,50464.00
2023-05-22T15:17:05.573Z,49824.00
2023-05-22T15:18:05.607Z,49856.00
2023-05-22T15:19:05.565Z,49024.00
2023-05-22T15:20:05.551Z,44288.00
2023-05-22T15:21:05.528Z,47392.00
2023-05-22T15:22:18.373Z,44096.00
2023-05-22T15:23:05.497Z,36032.00
2023-05-22T15:24:05.502Z,35968.00
2023-05-22T15:25:05.491Z,43232.00
2023-05-22T15:26:05.484Z,39424.00
2023-05-22T15:27:05.510Z,42400.00
2023-05-22T15:28:05.569Z,43328.00
2023-05-22T15:29:05.477Z,42208.00
2023-05-22T15:30:05.563Z,40672.00
2023-05-22T15:31:05.449Z,37184.00
2023-05-22T15:32:05.493Z,40160.00
2023-05-22T15:33:05.492Z,39648.00
2023-05-22T15:34:05.439Z,40512.00
2023-05-22T15:35:05.437Z,40704.00
2023-05-22T15:36:05.424Z,40352.00
2023-05-22T15:37:05.442Z,37056.00
2023-05-22T15:38:05.410Z,38656.00
2023-05-22T15:39:05.403Z,40160.00
2023-05-22T15:40:05.423Z,37856.00
2023-05-22T15:41:05.414Z,38272.00
2023-05-22T15:42:06.802Z,36480.00
2023-05-22T15:43:05.394Z,35040.00
2023-05-22T15:44:05.455Z,34336.00
2023-05-22T15:45:05.401Z,35200.00
2023-05-22T15:46:05.405Z,35392.00
2023-05-22T15:47:05.365Z,35616.00
2023-05-22T15:48:05.446Z,34048.00
2023-05-22T15:49:05.369Z,32704.00
2023-05-22T15:50:05.349Z,29248.00
2023-05-22T15:51:05.326Z,32000.00
2023-05-22T15:52:05.377Z,33280.00
2023-05-22T15:53:05.334Z,34976.00
2023-05-22T15:54:05.336Z,34016.00
2023-05-22T15:55:05.377Z,30656.00
2023-05-22T15:56:05.335Z,32768.00
2023-05-22T15:57:05.318Z,32032.00
2023-05-22T15:58:05.306Z,29760.00
2023-05-22T15:59:05.278Z,31424.00
2023-05-22T16:00:05.371Z,30528.00
2023-05-22T16:01:05.332Z,31584.00
2023-05-22T16:02:05.311Z,28544.00
2023-05-22T16:03:05.350Z,29440.00
2023-05-22T16:04:05.273Z,27744.00
2023-05-22T16:05:05.314Z,29888.00
2023-05-22T16:06:05.273Z,28864.00
2023-05-22T16:10:55.669Z,22336.00
2023-05-22T16:11:55.654Z,23776.00
